Main page
METAR-TAF:

METAR-TAF

Airports :

Beijing Capital International Airport

Beijing, China

latitude: 39-56N, longitude: 116-17E, elevation: 55 m

Current weather observation

The report was made 16 minutes ago, at 00:30 UTC
Wind 4 kt from the West, varying between Southwest and North/Northwest
Temperature 1°C
Humidity 55%
Pressure 1028 hPa
Visibility 10 km or more
no clouds below 1500 m and no cumulonimbus

METAR: ZBAA 180030Z 26002MPS 230V340 CAVOK 01/M07 Q1028 NOSIG

Time: 08:46 (00:46 UTC)

Forecast

The report was made 3 hours and 42 minutes ago, at 21:04 UTC
Forecast valid from 18 at 00 UTC to 18 at 24 UTC
Wind 8 kt from the South
Visibility 10 km or more
no clouds below 1500 m and no cumulonimbus

TAF: ZBAA 172104Z 1800/1824 18004MPS CAVOK TX11/1807Z TNM04/1821Z

Weather observations and forecasts of more than 4000 airports (METAR and TAF reports).

The available stations are represented by yellow and red dots on the map.

Hover mouse over dot to see the name of the station.

Then click to see weather observations and forecasts.

To change the map : click on the green buttons with a black cross to zoom in, on the green button with a dash to zoom out, or on the green arrows for adjacent maps.


METAR-TAF: